createdAt,value
2023-02-19T00:01:26.044Z,5.32
2023-02-19T00:04:01.336Z,5.60
2023-02-19T00:06:29.809Z,5.43
2023-02-19T00:09:00.013Z,6.30
2023-02-19T00:11:30.502Z,4.97
2023-02-19T00:13:59.600Z,5.00
2023-02-19T00:16:29.494Z,4.97
2023-02-19T00:18:58.982Z,4.60
2023-02-19T00:21:26.877Z,5.22
2023-02-19T00:23:59.285Z,4.72
2023-02-19T00:26:27.108Z,4.55
2023-02-19T00:28:55.825Z,4.78
2023-02-19T00:31:27.078Z,4.43
2023-02-19T00:34:01.166Z,5.13
2023-02-19T00:36:29.699Z,5.00
2023-02-19T00:38:57.064Z,5.97
2023-02-19T00:41:25.260Z,4.82
2023-02-19T00:43:54.590Z,5.43
2023-02-19T00:46:23.305Z,5.18
2023-02-19T00:48:50.634Z,5.68
2023-02-19T00:51:18.243Z,4.95
2023-02-19T00:53:45.936Z,5.60
2023-02-19T00:56:14.407Z,5.35
2023-02-19T00:58:41.105Z,5.38
2023-02-19T01:01:09.705Z,5.05
2023-02-19T01:03:39.864Z,5.97
2023-02-19T01:06:09.452Z,5.60
2023-02-19T01:08:37.708Z,4.55
2023-02-19T01:11:06.237Z,4.28
2023-02-19T01:13:34.731Z,4.25
2023-02-19T01:16:05.831Z,4.45
2023-02-19T01:18:34.096Z,4.78
2023-02-19T01:21:09.792Z,4.07
2023-02-19T01:23:37.551Z,3.88
2023-02-19T01:26:16.197Z,4.30
2023-02-19T01:28:44.229Z,4.55
2023-02-19T01:31:16.563Z,4.82
2023-02-19T01:33:48.800Z,4.45
2023-02-19T01:36:16.639Z,4.88
2023-02-19T01:38:44.769Z,4.85
2023-02-19T01:41:15.444Z,4.00
2023-02-19T01:44:04.419Z,5.03
2023-02-19T01:46:36.205Z,5.70
2023-02-19T01:49:10.444Z,4.60
2023-02-19T01:51:45.053Z,4.70
2023-02-19T01:54:15.770Z,5.32
2023-02-19T01:56:45.242Z,5.00
2023-02-19T01:59:13.453Z,5.75
2023-02-19T02:01:41.608Z,4.93
2023-02-19T02:04:12.731Z,5.75
2023-02-19T02:06:51.444Z,6.25
2023-02-19T02:09:43.445Z,6.05
2023-02-19T02:12:10.442Z,6.20
2023-02-19T02:14:41.509Z,5.63
2023-02-19T02:17:26.004Z,5.82
2023-02-19T02:20:21.018Z,5.78
2023-02-19T02:23:12.889Z,6.82
2023-02-19T02:25:58.460Z,5.82
2023-02-19T02:28:38.003Z,6.07
2023-02-19T02:31:18.173Z,5.85
2023-02-19T02:33:50.039Z,6.00
2023-02-19T02:36:35.359Z,6.05
2023-02-19T02:39:07.922Z,6.00
2023-02-19T02:41:35.599Z,6.15
2023-02-19T02:44:02.897Z,6.53
2023-02-19T02:46:35.871Z,6.10
2023-02-19T02:49:07.337Z,7.32
2023-02-19T02:51:41.023Z,6.50
2023-02-19T02:56:58.694Z,6.72
2023-02-19T02:59:32.324Z,6.50
2023-02-19T03:02:18.839Z,6.20
2023-02-19T03:05:26.283Z,7.03
2023-02-19T03:08:26.344Z,7.28
2023-02-19T03:11:21.263Z,6.43
2023-02-19T03:14:09.238Z,5.53
2023-02-19T03:16:59.195Z,5.75
2023-02-19T03:19:31.048Z,6.50
2023-02-19T03:22:11.386Z,6.65
2023-02-19T03:25:02.710Z,6.80
2023-02-19T03:27:33.724Z,6.63
2023-02-19T03:30:06.190Z,7.43
2023-02-19T03:32:40.741Z,7.25
2023-02-19T03:35:19.594Z,6.50
2023-02-19T03:37:55.742Z,6.80
2023-02-19T03:40:29.497Z,6.93
2023-02-19T03:45:38.487Z,6.88
2023-02-19T03:48:14.750Z,6.28
2023-02-19T03:50:50.512Z,6.40
2023-02-19T03:53:46.045Z,6.78
2023-02-19T03:56:28.671Z,6.40
2023-02-19T03:59:04.835Z,6.07
2023-02-19T04:01:56.962Z,6.72
2023-02-19T04:04:36.127Z,6.45
2023-02-19T04:07:03.378Z,6.15
2023-02-19T04:09:47.813Z,7.22
2023-02-19T04:12:17.137Z,6.35
2023-02-19T04:14:51.511Z,5.95
2023-02-19T04:17:27.421Z,6.28
2023-02-19T04:19:58.009Z,6.03
2023-02-19T04:22:25.821Z,6.75
2023-02-19T04:24:55.836Z,5.97
2023-02-19T04:27:22.957Z,6.22
2023-02-19T04:29:50.157Z,6.72
2023-02-19T04:32:17.581Z,7.22
2023-02-19T04:34:44.763Z,6.47
2023-02-19T04:37:12.245Z,6.32
2023-02-19T04:39:39.443Z,6.50
2023-02-19T04:42:06.745Z,6.13
2023-02-19T04:44:34.800Z,7.25
2023-02-19T04:47:02.514Z,6.70
2023-02-19T04:49:29.840Z,7.85
2023-02-19T04:51:57.109Z,7.60
2023-02-19T04:54:24.658Z,9.02
2023-02-19T04:56:52.020Z,8.57
2023-02-19T04:59:19.351Z,8.32
2023-02-19T05:01:46.993Z,7.97
2023-02-19T05:04:14.447Z,8.95
2023-02-19T05:06:46.220Z,6.68
2023-02-19T05:09:13.417Z,8.50
2023-02-19T05:11:40.797Z,8.77
2023-02-19T05:14:07.958Z,7.65
2023-02-19T05:16:35.297Z,7.90
2023-02-19T05:19:01.959Z,6.47
2023-02-19T05:21:29.298Z,6.78
2023-02-19T05:23:56.365Z,7.82
2023-02-19T05:26:24.547Z,8.18
2023-02-19T05:28:53.536Z,7.68
2023-02-19T05:31:21.657Z,7.28
2023-02-19T05:33:51.664Z,6.65
2023-02-19T05:36:21.421Z,7.38
2023-02-19T05:38:52.305Z,8.75
2023-02-19T05:41:23.325Z,8.55
2023-02-19T05:43:51.002Z,7.38
2023-02-19T05:46:21.484Z,8.57
2023-02-19T05:48:49.724Z,8.13
2023-02-19T05:51:19.796Z,6.90
2023-02-19T05:53:48.110Z,7.38
2023-02-19T05:56:31.519Z,7.68
2023-02-19T05:59:00.232Z,6.15
2023-02-19T06:01:29.419Z,7.45
2023-02-19T06:03:57.616Z,7.82
2023-02-19T06:06:27.170Z,7.65
2023-02-19T06:08:55.033Z,7.82
2023-02-19T06:11:22.607Z,6.80
2023-02-19T06:13:50.970Z,7.65
2023-02-19T06:16:19.489Z,7.72
2023-02-19T06:18:47.048Z,8.77
2023-02-19T06:21:15.764Z,7.15
2023-02-19T06:23:46.558Z,7.90
2023-02-19T06:26:20.921Z,7.10
2023-02-19T06:28:50.507Z,6.30
2023-02-19T06:31:22.418Z,6.63
2023-02-19T06:33:51.066Z,7.32
2023-02-19T06:36:20.723Z,6.50
2023-02-19T06:38:49.325Z,7.70
2023-02-19T06:41:16.304Z,7.10
2023-02-19T06:43:43.600Z,6.65
2023-02-19T06:46:13.421Z,7.65
2023-02-19T06:48:42.669Z,7.65
2023-02-19T06:51:15.032Z,7.30
2023-02-19T06:53:42.738Z,7.18
2023-02-19T06:56:28.384Z,7.28
2023-02-19T06:59:01.531Z,6.60
2023-02-19T07:01:35.443Z,7.25
2023-02-19T07:04:03.187Z,7.03
2023-02-19T07:06:30.868Z,7.88
2023-02-19T07:08:59.558Z,6.22
2023-02-19T07:11:27.193Z,7.38
2023-02-19T07:13:58.845Z,6.60
2023-02-19T07:16:33.135Z,6.55
2023-02-19T07:19:01.393Z,6.57
2023-02-19T07:21:29.922Z,6.60
2023-02-19T07:23:58.274Z,6.88
2023-02-19T07:26:26.064Z,8.23
2023-02-19T07:28:54.019Z,6.93
2023-02-19T07:31:24.592Z,6.65
2023-02-19T07:33:51.851Z,7.57
2023-02-19T07:36:20.313Z,6.53
2023-02-19T07:38:47.376Z,6.07
2023-02-19T07:41:14.777Z,7.60
2023-02-19T07:43:42.160Z,7.00
2023-02-19T07:46:12.673Z,6.45
2023-02-19T07:48:41.915Z,7.28
2023-02-19T07:51:13.065Z,6.80
2023-02-19T07:53:41.042Z,6.90
2023-02-19T07:56:10.790Z,7.38
2023-02-19T07:58:38.211Z,6.20
2023-02-19T08:01:17.342Z,6.07
2023-02-19T08:03:47.089Z,5.65
2023-02-19T08:06:15.454Z,5.90
2023-02-19T08:08:42.926Z,6.20
2023-02-19T08:11:29.344Z,5.90
2023-02-19T08:13:56.783Z,5.43
2023-02-19T08:16:40.841Z,6.30
2023-02-19T08:19:09.892Z,5.28
2023-02-19T08:21:36.953Z,5.72
2023-02-19T08:24:04.610Z,5.68
2023-02-19T08:26:32.750Z,5.97
2023-02-19T08:28:59.830Z,5.65
2023-02-19T08:31:33.488Z,5.60
2023-02-19T08:36:30.830Z,4.95
2023-02-19T08:38:58.504Z,5.78
2023-02-19T08:41:26.227Z,5.30
2023-02-19T08:43:53.777Z,5.80
2023-02-19T08:46:24.449Z,5.38
2023-02-19T08:48:52.542Z,4.70
2023-02-19T08:51:20.308Z,5.47
2023-02-19T08:53:48.129Z,5.78
2023-02-19T08:56:19.478Z,5.47
2023-02-19T08:58:47.981Z,4.35
2023-02-19T09:01:19.329Z,4.50
2023-02-19T09:03:47.097Z,5.07
2023-02-19T09:06:17.578Z,13.20
2023-02-19T09:08:45.189Z,10.55
2023-02-19T09:11:13.564Z,19.30
2023-02-19T09:13:41.314Z,9.45
2023-02-19T09:16:08.837Z,12.00
2023-02-19T09:18:36.622Z,20.02
2023-02-19T09:21:06.411Z,8.52
2023-02-19T09:23:35.116Z,12.70
2023-02-19T09:26:07.134Z,11.55
2023-02-19T09:28:35.451Z,6.57
2023-02-19T09:31:11.928Z,5.00
2023-02-19T09:33:43.058Z,4.55
2023-02-19T09:36:11.232Z,4.38
2023-02-19T09:38:40.176Z,4.28
2023-02-19T09:41:10.524Z,4.93
2023-02-19T09:43:37.685Z,4.80
2023-02-19T09:46:19.735Z,4.93
2023-02-19T09:48:47.153Z,4.20
2023-02-19T09:51:16.352Z,5.07
2023-02-19T09:53:48.180Z,5.03
2023-02-19T09:56:16.387Z,6.03
2023-02-19T09:58:50.814Z,4.28
2023-02-19T10:01:19.311Z,4.25
2023-02-19T10:03:48.807Z,4.53
2023-02-19T10:06:24.418Z,4.20
2023-02-19T10:08:55.523Z,12.93
2023-02-19T10:11:27.071Z,10.80
2023-02-19T10:14:09.951Z,4.90
2023-02-19T10:16:42.838Z,5.88
2023-02-19T10:19:14.135Z,8.00
2023-02-19T10:21:42.255Z,5.20
2023-02-19T10:24:20.549Z,5.65
2023-02-19T10:26:48.888Z,4.25
2023-02-19T10:29:16.184Z,4.75
2023-02-19T10:31:43.875Z,4.20
2023-02-19T10:34:19.851Z,13.07
2023-02-19T10:36:51.263Z,5.72
2023-02-19T10:39:30.082Z,10.15
2023-02-19T10:41:57.760Z,7.53
2023-02-19T10:44:42.626Z,7.13
2023-02-19T10:47:18.749Z,6.55
2023-02-19T10:49:49.223Z,6.25
2023-02-19T10:52:20.932Z,5.65
2023-02-19T10:54:56.460Z,5.93
2023-02-19T10:57:30.273Z,6.55
2023-02-19T11:00:08.609Z,7.45
2023-02-19T11:02:36.073Z,7.78
2023-02-19T11:05:18.683Z,5.78
2023-02-19T11:07:49.348Z,5.07
2023-02-19T11:10:39.183Z,6.38
2023-02-19T11:13:13.631Z,6.30
2023-02-19T11:15:42.148Z,7.00
2023-02-19T11:18:15.571Z,8.77
2023-02-19T11:20:51.993Z,7.32
2023-02-19T11:23:23.655Z,8.05
2023-02-19T11:25:54.093Z,10.48
2023-02-19T11:28:39.524Z,9.15
2023-02-19T11:31:32.260Z,6.22
2023-02-19T11:34:29.855Z,6.22
2023-02-19T11:37:18.797Z,4.78
2023-02-19T11:39:49.770Z,4.53
2023-02-19T11:43:06.002Z,5.05
2023-02-19T11:45:48.974Z,4.97
2023-02-19T11:48:27.544Z,4.30
2023-02-19T11:51:16.494Z,4.18
2023-02-19T11:53:50.930Z,4.55
2023-02-19T11:56:24.046Z,5.35
2023-02-19T11:59:01.218Z,3.20
2023-02-19T12:01:31.783Z,4.53
2023-02-19T12:04:30.101Z,5.28
2023-02-19T12:07:05.724Z,4.45
2023-02-19T12:09:41.940Z,4.25
2023-02-19T12:12:46.594Z,4.85
2023-02-19T12:17:54.708Z,3.22
2023-02-19T12:20:43.622Z,4.95
2023-02-19T12:23:39.984Z,3.72
2023-02-19T12:26:20.180Z,3.25
2023-02-19T12:28:56.366Z,3.53
2023-02-19T12:31:47.989Z,3.10
2023-02-19T12:34:33.586Z,4.20
2023-02-19T12:37:18.839Z,3.97
2023-02-19T12:40:24.949Z,4.15
2023-02-19T12:43:10.748Z,4.32
2023-02-19T12:45:56.845Z,8.63
2023-02-19T12:49:15.154Z,10.38
2023-02-19T12:51:42.412Z,6.30
2023-02-19T12:54:30.560Z,6.15
2023-02-19T12:57:27.113Z,8.68
2023-02-19T13:00:08.000Z,11.15
2023-02-19T13:02:52.417Z,7.55
2023-02-19T13:05:21.280Z,10.20
2023-02-19T13:08:00.104Z,8.55
2023-02-19T13:10:34.672Z,14.88
2023-02-19T13:13:07.975Z,11.45
2023-02-19T13:16:13.678Z,6.50
2023-02-19T13:19:07.109Z,5.15
2023-02-19T13:21:56.670Z,4.57
2023-02-19T13:24:28.625Z,5.97
2023-02-19T13:27:17.828Z,6.22
2023-02-19T13:30:11.029Z,4.63
2023-02-19T13:33:01.099Z,4.35
2023-02-19T13:35:56.143Z,9.02
2023-02-19T13:38:24.680Z,5.00
2023-02-19T13:40:58.183Z,4.20
2023-02-19T13:43:28.671Z,5.63
2023-02-19T13:46:25.906Z,5.32
2023-02-19T13:49:25.423Z,6.97
2023-02-19T13:52:01.858Z,7.07
2023-02-19T13:54:36.590Z,6.25
2023-02-19T13:57:19.182Z,3.63
2023-02-19T13:59:48.762Z,3.42
2023-02-19T14:02:22.211Z,4.30
2023-02-19T14:05:01.184Z,3.50
2023-02-19T14:07:28.722Z,2.63
2023-02-19T14:09:56.665Z,3.13
2023-02-19T14:12:33.940Z,4.60
2023-02-19T14:15:51.546Z,3.92
2023-02-19T14:18:45.347Z,3.97
2023-02-19T14:21:34.762Z,3.00
2023-02-19T14:24:03.590Z,3.28
2023-02-19T14:26:32.429Z,3.20
2023-02-19T14:29:02.504Z,4.43
2023-02-19T14:31:35.277Z,4.65
2023-02-19T14:34:07.093Z,5.82
2023-02-19T14:36:45.643Z,6.30
2023-02-19T14:39:18.502Z,4.95
2023-02-19T14:41:50.819Z,8.10
2023-02-19T14:44:30.952Z,14.23
2023-02-19T14:47:04.889Z,14.27
2023-02-19T14:49:46.327Z,4.47
2023-02-19T14:52:32.436Z,3.58
2023-02-19T14:55:08.750Z,3.72
2023-02-19T14:57:47.926Z,3.47
2023-02-19T15:00:27.975Z,2.75
2023-02-19T15:02:57.949Z,4.75
2023-02-19T15:05:27.880Z,4.00
2023-02-19T15:07:59.028Z,2.90
2023-02-19T15:10:29.625Z,3.13
2023-02-19T15:13:00.644Z,3.08
2023-02-19T15:15:31.474Z,3.38
2023-02-19T15:18:00.802Z,3.70
2023-02-19T15:20:31.563Z,3.50
2023-02-19T15:23:00.567Z,4.75
2023-02-19T15:25:34.439Z,5.78
2023-02-19T15:28:27.807Z,2.72
2023-02-19T15:30:58.027Z,3.23
2023-02-19T15:33:27.738Z,3.10
2023-02-19T15:36:01.423Z,3.45
2023-02-19T15:40:58.165Z,3.40
2023-02-19T15:43:28.730Z,2.60
2023-02-19T15:46:01.271Z,3.40
2023-02-19T15:48:45.422Z,3.10
2023-02-19T15:51:19.499Z,4.30
2023-02-19T15:53:52.622Z,3.25
2023-02-19T15:56:32.534Z,2.65
2023-02-19T15:59:20.707Z,3.22
2023-02-19T16:01:49.002Z,3.38
2023-02-19T16:04:19.002Z,3.05
2023-02-19T16:06:54.161Z,3.03
2023-02-19T16:09:23.654Z,3.63
2023-02-19T16:11:55.933Z,3.38
2023-02-19T16:14:23.417Z,2.70
2023-02-19T16:16:55.383Z,3.53
2023-02-19T16:19:31.477Z,3.28
2023-02-19T16:21:59.214Z,2.50
2023-02-19T16:24:34.152Z,3.95
2023-02-19T16:27:02.138Z,3.58
2023-02-19T16:29:31.836Z,3.15
2023-02-19T16:32:02.160Z,3.63
2023-02-19T16:34:43.433Z,2.78
2023-02-19T16:37:33.685Z,2.60
2023-02-19T16:40:10.100Z,3.70
2023-02-19T16:42:57.846Z,3.35
2023-02-19T16:45:27.497Z,3.60
2023-02-19T16:47:54.256Z,3.80
2023-02-19T16:50:23.712Z,3.33
2023-02-19T16:52:59.538Z,3.78
2023-02-19T16:55:28.373Z,3.70
2023-02-19T16:57:55.798Z,4.82
2023-02-19T17:00:26.001Z,3.75
2023-02-19T17:02:59.082Z,4.05
2023-02-19T17:05:28.654Z,3.08
2023-02-19T17:07:56.223Z,3.15
2023-02-19T17:10:26.672Z,2.83
2023-02-19T17:12:58.302Z,2.90
2023-02-19T17:15:25.377Z,2.58
2023-02-19T17:17:52.239Z,3.28
2023-02-19T17:20:28.204Z,2.72
2023-02-19T17:22:55.734Z,3.03
2023-02-19T17:25:23.518Z,3.58
2023-02-19T17:27:50.699Z,3.97
2023-02-19T17:30:25.505Z,3.35
2023-02-19T17:32:52.944Z,3.97
2023-02-19T17:35:20.675Z,4.05
2023-02-19T17:37:47.949Z,3.58
2023-02-19T17:40:33.388Z,3.70
2023-02-19T17:43:01.415Z,3.08
2023-02-19T17:45:28.830Z,3.20
2023-02-19T17:47:55.574Z,3.05
2023-02-19T17:50:26.325Z,2.55
2023-02-19T17:52:52.988Z,2.67
2023-02-19T17:55:20.657Z,3.08
2023-02-19T17:57:50.792Z,3.03
2023-02-19T18:00:23.462Z,2.60
2023-02-19T18:02:51.114Z,2.97
2023-02-19T18:05:18.764Z,4.03
2023-02-19T18:07:47.706Z,2.60
2023-02-19T18:10:17.308Z,2.40
2023-02-19T18:12:44.907Z,3.03
2023-02-19T18:15:18.588Z,3.10
2023-02-19T18:20:15.275Z,4.25
2023-02-19T18:22:42.804Z,4.07
2023-02-19T18:25:11.479Z,3.10
2023-02-19T18:27:38.999Z,2.97
2023-02-19T18:30:07.396Z,3.67
2023-02-19T18:32:34.357Z,3.13
2023-02-19T18:35:03.228Z,2.80
2023-02-19T18:37:32.564Z,3.15
2023-02-19T18:40:01.780Z,3.85
2023-02-19T18:42:29.143Z,4.22
2023-02-19T18:44:56.725Z,3.53
2023-02-19T18:47:26.251Z,3.08
2023-02-19T18:49:56.593Z,3.53
2023-02-19T18:52:26.992Z,2.88
2023-02-19T18:54:57.716Z,4.15
2023-02-19T18:57:27.815Z,3.30
2023-02-19T18:59:55.468Z,3.03
2023-02-19T19:02:23.634Z,3.25
2023-02-19T19:04:53.779Z,3.65
2023-02-19T19:07:21.849Z,3.50
2023-02-19T19:09:49.303Z,3.78
2023-02-19T19:12:16.277Z,4.00
2023-02-19T19:14:43.727Z,4.18
2023-02-19T19:17:10.960Z,3.43
2023-02-19T19:19:38.166Z,4.27
2023-02-19T19:22:05.202Z,5.13
2023-02-19T19:24:32.297Z,4.57
2023-02-19T19:26:59.454Z,5.22
2023-02-19T19:29:26.390Z,4.30
2023-02-19T19:31:53.756Z,4.97
2023-02-19T19:34:21.062Z,4.97
2023-02-19T19:36:48.373Z,3.53
2023-02-19T19:39:15.505Z,3.70
2023-02-19T19:41:42.721Z,4.60
2023-02-19T19:44:09.948Z,4.13
2023-02-19T19:46:43.532Z,4.07
2023-02-19T19:49:11.017Z,3.92
2023-02-19T19:51:37.812Z,3.53
2023-02-19T19:54:05.558Z,4.33
2023-02-19T19:56:34.335Z,4.83
2023-02-19T19:59:01.675Z,3.67
2023-02-19T20:01:30.464Z,4.30
2023-02-19T20:03:57.779Z,4.00
2023-02-19T20:06:33.790Z,3.63
2023-02-19T20:09:02.345Z,3.90
2023-02-19T20:11:30.677Z,4.37
2023-02-19T20:13:58.389Z,3.80
2023-02-19T20:16:29.803Z,3.93
2023-02-19T20:18:57.381Z,3.77
2023-02-19T20:21:25.117Z,4.20
2023-02-19T20:23:52.747Z,5.40
2023-02-19T20:26:26.181Z,4.67
2023-02-19T20:28:54.750Z,3.75
2023-02-19T20:31:23.185Z,3.73
2023-02-19T20:33:51.728Z,4.00
2023-02-19T20:36:20.262Z,4.60
2023-02-19T20:38:49.766Z,3.53
2023-02-19T20:41:17.698Z,4.33
2023-02-19T20:43:44.467Z,3.83
2023-02-19T20:46:11.962Z,3.67
2023-02-19T20:48:39.641Z,3.83
2023-02-19T20:51:07.073Z,3.93
2023-02-19T20:53:35.610Z,3.77
2023-02-19T20:56:03.952Z,3.87
2023-02-19T20:58:31.459Z,4.30
2023-02-19T21:00:58.476Z,4.87
2023-02-19T21:03:26.866Z,4.57
2023-02-19T21:05:54.052Z,4.30
2023-02-19T21:08:22.285Z,3.67
2023-02-19T21:10:49.660Z,3.83
2023-02-19T21:13:17.100Z,4.40
2023-02-19T21:15:44.923Z,3.90
2023-02-19T21:18:12.521Z,3.97
2023-02-19T21:20:39.994Z,4.20
2023-02-19T21:23:07.307Z,4.53
2023-02-19T21:25:34.603Z,3.83
2023-02-19T21:28:01.660Z,4.53
2023-02-19T21:30:29.272Z,4.63
2023-02-19T21:32:56.852Z,4.03
2023-02-19T21:35:23.977Z,3.73
2023-02-19T21:37:51.218Z,4.10
2023-02-19T21:40:18.912Z,3.90
2023-02-19T21:42:46.229Z,4.33
2023-02-19T21:45:13.502Z,4.13
2023-02-19T21:47:40.872Z,4.30
2023-02-19T21:50:07.924Z,4.40
2023-02-19T21:52:35.355Z,3.67
2023-02-19T21:55:02.624Z,3.47
2023-02-19T21:57:30.214Z,4.33
2023-02-19T21:59:57.432Z,4.13
2023-02-19T22:02:24.387Z,4.27
2023-02-19T22:04:55.441Z,4.23
2023-02-19T22:07:23.268Z,4.23
2023-02-19T22:09:51.721Z,3.93
2023-02-19T22:12:20.440Z,4.13
2023-02-19T22:14:48.077Z,3.97
2023-02-19T22:17:15.325Z,3.67
2023-02-19T22:19:42.936Z,4.53
2023-02-19T22:22:09.722Z,3.90
2023-02-19T22:24:37.673Z,4.03
2023-02-19T22:27:04.847Z,4.20
2023-02-19T22:29:32.652Z,4.10
2023-02-19T22:31:59.900Z,3.83
2023-02-19T22:34:27.593Z,3.67
2023-02-19T22:36:55.203Z,3.77
2023-02-19T22:39:25.820Z,4.30
2023-02-19T22:41:53.569Z,4.00
2023-02-19T22:44:20.747Z,4.00
2023-02-19T22:46:53.884Z,4.00
2023-02-19T22:49:21.973Z,4.07
2023-02-19T22:52:03.831Z,4.20
2023-02-19T22:54:31.544Z,4.20
2023-02-19T22:56:59.063Z,4.40
2023-02-19T22:59:25.957Z,3.83
2023-02-19T23:01:53.797Z,4.30
2023-02-19T23:04:22.909Z,4.53
2023-02-19T23:06:51.062Z,4.23
2023-02-19T23:09:25.099Z,4.17
2023-02-19T23:11:53.791Z,5.07
2023-02-19T23:14:21.732Z,4.33
2023-02-19T23:16:48.843Z,4.20
2023-02-19T23:19:17.112Z,4.47
2023-02-19T23:21:45.255Z,4.37
2023-02-19T23:24:13.830Z,4.07
2023-02-19T23:26:49.181Z,3.90
2023-02-19T23:29:18.579Z,4.80
2023-02-19T23:31:46.383Z,3.77
2023-02-19T23:34:13.703Z,4.07
2023-02-19T23:36:42.074Z,3.70
2023-02-19T23:39:11.460Z,4.47
2023-02-19T23:41:39.199Z,4.37
2023-02-19T23:44:05.914Z,4.00
2023-02-19T23:46:34.351Z,4.40
2023-02-19T23:49:01.453Z,4.37
2023-02-19T23:51:28.868Z,3.93
2023-02-19T23:53:55.978Z,5.33
2023-02-19T23:56:28.296Z,4.40
2023-02-19T23:58:56.160Z,3.63
